sensor_id;sensor_type;location;lat;lon;timestamp;P1;durP1;ratioP1;P2;durP2;ratioP2
76610;SDS011;65503;48.534;9.062;2023-02-01T00:00:49;7.03;;;3.53;;
76610;SDS011;65503;48.534;9.062;2023-02-01T00:03:15;6.82;;;3.05;;
76610;SDS011;65503;48.534;9.062;2023-02-01T00:05:54;8.48;;;3.25;;
76610;SDS011;65503;48.534;9.062;2023-02-01T00:08:21;8.35;;;3.67;;
76610;SDS011;65503;48.534;9.062;2023-02-01T00:10:48;9.35;;;2.92;;
76610;SDS011;65503;48.534;9.062;2023-02-01T00:13:14;8.10;;;3.22;;
76610;SDS011;65503;48.534;9.062;2023-02-01T00:15:41;7.68;;;3.28;;
76610;SDS011;65503;48.534;9.062;2023-02-01T00:18:07;7.97;;;3.10;;
76610;SDS011;65503;48.534;9.062;2023-02-01T00:20:34;7.88;;;3.05;;
76610;SDS011;65503;48.534;9.062;2023-02-01T00:23:00;6.50;;;2.90;;
76610;SDS011;65503;48.534;9.062;2023-02-01T00:25:27;7.88;;;3.15;;
76610;SDS011;65503;48.534;9.062;2023-02-01T00:27:53;5.93;;;2.95;;
76610;SDS011;65503;48.534;9.062;2023-02-01T00:30:21;9.88;;;3.58;;
76610;SDS011;65503;48.534;9.062;2023-02-01T00:32:48;7.28;;;3.00;;
76610;SDS011;65503;48.534;9.062;2023-02-01T00:35:14;6.60;;;2.42;;
76610;SDS011;65503;48.534;9.062;2023-02-01T00:37:41;6.00;;;2.90;;
76610;SDS011;65503;48.534;9.062;2023-02-01T00:40:07;7.10;;;2.80;;
76610;SDS011;65503;48.534;9.062;2023-02-01T00:42:34;7.75;;;2.65;;
76610;SDS011;65503;48.534;9.062;2023-02-01T00:45:01;6.80;;;2.35;;
76610;SDS011;65503;48.534;9.062;2023-02-01T00:47:27;7.32;;;2.67;;
76610;SDS011;65503;48.534;9.062;2023-02-01T00:49:53;6.03;;;2.53;;
76610;SDS011;65503;48.534;9.062;2023-02-01T00:52:20;6.93;;;3.20;;
76610;SDS011;65503;48.534;9.062;2023-02-01T00:54:46;5.80;;;2.78;;
76610;SDS011;65503;48.534;9.062;2023-02-01T00:57:13;5.90;;;2.55;;
76610;SDS011;65503;48.534;9.062;2023-02-01T00:59:39;5.82;;;2.42;;
76610;SDS011;65503;48.534;9.062;2023-02-01T01:02:06;7.00;;;2.38;;
76610;SDS011;65503;48.534;9.062;2023-02-01T01:04:32;5.65;;;2.47;;
76610;SDS011;65503;48.534;9.062;2023-02-01T01:06:59;5.22;;;2.50;;
76610;SDS011;65503;48.534;9.062;2023-02-01T01:09:25;4.65;;;2.22;;
76610;SDS011;65503;48.534;9.062;2023-02-01T01:11:52;3.90;;;1.92;;
76610;SDS011;65503;48.534;9.062;2023-02-01T01:14:18;5.03;;;2.10;;
76610;SDS011;65503;48.534;9.062;2023-02-01T01:16:45;6.75;;;1.85;;
76610;SDS011;65503;48.534;9.062;2023-02-01T01:19:11;5.68;;;2.28;;
76610;SDS011;65503;48.534;9.062;2023-02-01T01:21:39;5.40;;;1.88;;
76610;SDS011;65503;48.534;9.062;2023-02-01T01:24:05;6.05;;;2.30;;
76610;SDS011;65503;48.534;9.062;2023-02-01T01:26:32;4.43;;;2.05;;
76610;SDS011;65503;48.534;9.062;2023-02-01T01:28:58;5.20;;;2.00;;
76610;SDS011;65503;48.534;9.062;2023-02-01T01:31:26;5.40;;;2.00;;
76610;SDS011;65503;48.534;9.062;2023-02-01T01:33:53;5.05;;;2.00;;
76610;SDS011;65503;48.534;9.062;2023-02-01T01:36:21;4.00;;;1.92;;
76610;SDS011;65503;48.534;9.062;2023-02-01T01:38:49;5.38;;;2.20;;
76610;SDS011;65503;48.534;9.062;2023-02-01T01:41:17;3.42;;;1.80;;
76610;SDS011;65503;48.534;9.062;2023-02-01T01:44:05;4.10;;;1.65;;
76610;SDS011;65503;48.534;9.062;2023-02-01T01:46:34;5.15;;;2.00;;
76610;SDS011;65503;48.534;9.062;2023-02-01T01:51:35;3.45;;;1.65;;
76610;SDS011;65503;48.534;9.062;2023-02-01T01:54:11;5.22;;;2.00;;
76610;SDS011;65503;48.534;9.062;2023-02-01T01:56:43;5.80;;;2.40;;
76610;SDS011;65503;48.534;9.062;2023-02-01T01:59:15;4.78;;;2.13;;
76610;SDS011;65503;48.534;9.062;2023-02-01T02:01:41;4.00;;;1.88;;
76610;SDS011;65503;48.534;9.062;2023-02-01T02:04:08;3.95;;;1.98;;
76610;SDS011;65503;48.534;9.062;2023-02-01T02:06:40;5.90;;;1.90;;
76610;SDS011;65503;48.534;9.062;2023-02-01T02:09:14;4.90;;;2.05;;
76610;SDS011;65503;48.534;9.062;2023-02-01T02:11:41;6.28;;;2.08;;
76610;SDS011;65503;48.534;9.062;2023-02-01T02:14:08;4.30;;;1.95;;
76610;SDS011;65503;48.534;9.062;2023-02-01T02:16:45;4.90;;;2.03;;
76610;SDS011;65503;48.534;9.062;2023-02-01T02:39:11;5.05;;;2.00;;
76610;SDS011;65503;48.534;9.062;2023-02-01T02:41:58;3.15;;;1.70;;
76610;SDS011;65503;48.534;9.062;2023-02-01T02:44:54;4.78;;;2.00;;
76610;SDS011;65503;48.534;9.062;2023-02-01T02:53:37;4.57;;;2.08;;
76610;SDS011;65503;48.534;9.062;2023-02-01T02:56:28;3.92;;;2.05;;
76610;SDS011;65503;48.534;9.062;2023-02-01T02:59:14;4.13;;;1.90;;
76610;SDS011;65503;48.534;9.062;2023-02-01T03:02:02;4.10;;;1.92;;
76610;SDS011;65503;48.534;9.062;2023-02-01T03:04:51;4.78;;;2.20;;
76610;SDS011;65503;48.534;9.062;2023-02-01T03:13:06;4.32;;;2.00;;
76610;SDS011;65503;48.534;9.062;2023-02-01T03:15:41;5.30;;;2.35;;
76610;SDS011;65503;48.534;9.062;2023-02-01T03:18:19;4.90;;;2.33;;
76610;SDS011;65503;48.534;9.062;2023-02-01T03:20:52;5.88;;;2.50;;
76610;SDS011;65503;48.534;9.062;2023-02-01T03:23:22;4.40;;;2.05;;
76610;SDS011;65503;48.534;9.062;2023-02-01T03:25:53;4.95;;;2.03;;
76610;SDS011;65503;48.534;9.062;2023-02-01T03:28:22;6.75;;;2.55;;
76610;SDS011;65503;48.534;9.062;2023-02-01T03:30:50;6.40;;;2.28;;
76610;SDS011;65503;48.534;9.062;2023-02-01T03:33:19;4.78;;;2.22;;
76610;SDS011;65503;48.534;9.062;2023-02-01T03:35:52;4.30;;;2.03;;
76610;SDS011;65503;48.534;9.062;2023-02-01T03:38:34;6.30;;;2.22;;
76610;SDS011;65503;48.534;9.062;2023-02-01T03:41:23;5.20;;;2.45;;
76610;SDS011;65503;48.534;9.062;2023-02-01T03:44:13;5.95;;;2.20;;
76610;SDS011;65503;48.534;9.062;2023-02-01T03:52:21;5.45;;;2.55;;
76610;SDS011;65503;48.534;9.062;2023-02-01T03:54:52;4.43;;;2.10;;
76610;SDS011;65503;48.534;9.062;2023-02-01T03:57:21;5.32;;;2.45;;
76610;SDS011;65503;48.534;9.062;2023-02-01T03:59:52;3.67;;;1.90;;
76610;SDS011;65503;48.534;9.062;2023-02-01T04:02:19;5.68;;;2.45;;
76610;SDS011;65503;48.534;9.062;2023-02-01T04:04:45;5.07;;;2.33;;
76610;SDS011;65503;48.534;9.062;2023-02-01T04:07:13;5.32;;;2.13;;
76610;SDS011;65503;48.534;9.062;2023-02-01T04:09:39;3.80;;;1.88;;
76610;SDS011;65503;48.534;9.062;2023-02-01T04:12:06;5.60;;;2.53;;
76610;SDS011;65503;48.534;9.062;2023-02-01T04:14:33;6.47;;;2.50;;
76610;SDS011;65503;48.534;9.062;2023-02-01T04:16:59;4.18;;;2.10;;
76610;SDS011;65503;48.534;9.062;2023-02-01T04:19:26;5.78;;;2.47;;
76610;SDS011;65503;48.534;9.062;2023-02-01T04:21:52;6.07;;;2.30;;
76610;SDS011;65503;48.534;9.062;2023-02-01T04:24:19;6.03;;;2.92;;
76610;SDS011;65503;48.534;9.062;2023-02-01T04:26:45;5.38;;;2.38;;
76610;SDS011;65503;48.534;9.062;2023-02-01T04:29:12;4.78;;;2.13;;
76610;SDS011;65503;48.534;9.062;2023-02-01T04:31:38;5.00;;;2.40;;
76610;SDS011;65503;48.534;9.062;2023-02-01T04:34:05;4.90;;;2.25;;
76610;SDS011;65503;48.534;9.062;2023-02-01T04:36:31;4.00;;;2.15;;
76610;SDS011;65503;48.534;9.062;2023-02-01T04:38:58;4.47;;;2.10;;
76610;SDS011;65503;48.534;9.062;2023-02-01T04:41:24;5.38;;;2.33;;
76610;SDS011;65503;48.534;9.062;2023-02-01T04:43:51;6.00;;;2.50;;
76610;SDS011;65503;48.534;9.062;2023-02-01T04:46:18;4.65;;;2.20;;
76610;SDS011;65503;48.534;9.062;2023-02-01T04:48:45;5.03;;;2.25;;
76610;SDS011;65503;48.534;9.062;2023-02-01T04:51:11;5.78;;;2.50;;
76610;SDS011;65503;48.534;9.062;2023-02-01T04:53:39;5.40;;;2.47;;
76610;SDS011;65503;48.534;9.062;2023-02-01T04:56:05;5.20;;;2.50;;
76610;SDS011;65503;48.534;9.062;2023-02-01T04:58:32;5.65;;;2.25;;
76610;SDS011;65503;48.534;9.062;2023-02-01T05:00:59;4.57;;;2.28;;
76610;SDS011;65503;48.534;9.062;2023-02-01T05:03:33;5.07;;;2.30;;
76610;SDS011;65503;48.534;9.062;2023-02-01T05:06:01;5.05;;;2.25;;
76610;SDS011;65503;48.534;9.062;2023-02-01T05:08:30;4.97;;;2.40;;
76610;SDS011;65503;48.534;9.062;2023-02-01T05:10:57;5.35;;;2.42;;
76610;SDS011;65503;48.534;9.062;2023-02-01T05:13:25;5.03;;;2.10;;
76610;SDS011;65503;48.534;9.062;2023-02-01T05:16:10;5.97;;;2.60;;
76610;SDS011;65503;48.534;9.062;2023-02-01T05:18:36;5.55;;;2.25;;
76610;SDS011;65503;48.534;9.062;2023-02-01T05:21:03;5.35;;;2.20;;
76610;SDS011;65503;48.534;9.062;2023-02-01T05:23:29;4.90;;;2.25;;
76610;SDS011;65503;48.534;9.062;2023-02-01T05:26:00;3.80;;;1.73;;
76610;SDS011;65503;48.534;9.062;2023-02-01T05:28:27;4.43;;;2.05;;
76610;SDS011;65503;48.534;9.062;2023-02-01T05:30:54;3.42;;;1.50;;
76610;SDS011;65503;48.534;9.062;2023-02-01T05:33:21;4.65;;;1.92;;
76610;SDS011;65503;48.534;9.062;2023-02-01T05:35:47;4.68;;;2.20;;
76610;SDS011;65503;48.534;9.062;2023-02-01T05:38:14;4.93;;;2.28;;
76610;SDS011;65503;48.534;9.062;2023-02-01T05:40:40;5.07;;;1.90;;
76610;SDS011;65503;48.534;9.062;2023-02-01T05:43:07;4.75;;;2.00;;
76610;SDS011;65503;48.534;9.062;2023-02-01T05:45:33;6.07;;;2.50;;
76610;SDS011;65503;48.534;9.062;2023-02-01T05:48:00;3.97;;;1.80;;
76610;SDS011;65503;48.534;9.062;2023-02-01T05:50:26;4.32;;;1.70;;
76610;SDS011;65503;48.534;9.062;2023-02-01T05:52:53;3.85;;;1.70;;
76610;SDS011;65503;48.534;9.062;2023-02-01T05:55:19;4.38;;;2.03;;
76610;SDS011;65503;48.534;9.062;2023-02-01T05:57:46;4.38;;;2.00;;
76610;SDS011;65503;48.534;9.062;2023-02-01T06:00:12;4.78;;;2.00;;
76610;SDS011;65503;48.534;9.062;2023-02-01T06:02:39;4.85;;;1.88;;
76610;SDS011;65503;48.534;9.062;2023-02-01T06:05:06;3.83;;;1.60;;
76610;SDS011;65503;48.534;9.062;2023-02-01T06:07:33;3.33;;;1.70;;
76610;SDS011;65503;48.534;9.062;2023-02-01T06:10:00;4.10;;;1.50;;
76610;SDS011;65503;48.534;9.062;2023-02-01T06:12:26;4.80;;;1.60;;
76610;SDS011;65503;48.534;9.062;2023-02-01T06:14:54;4.15;;;1.83;;
76610;SDS011;65503;48.534;9.062;2023-02-01T06:17:20;3.53;;;1.70;;
76610;SDS011;65503;48.534;9.062;2023-02-01T06:19:47;2.80;;;1.67;;
76610;SDS011;65503;48.534;9.062;2023-02-01T06:22:14;3.35;;;1.88;;
76610;SDS011;65503;48.534;9.062;2023-02-01T06:24:41;5.00;;;1.95;;
76610;SDS011;65503;48.534;9.062;2023-02-01T06:27:07;3.88;;;1.48;;
76610;SDS011;65503;48.534;9.062;2023-02-01T06:29:35;5.90;;;1.92;;
76610;SDS011;65503;48.534;9.062;2023-02-01T06:32:01;4.57;;;1.60;;
76610;SDS011;65503;48.534;9.062;2023-02-01T06:34:29;3.75;;;1.75;;
76610;SDS011;65503;48.534;9.062;2023-02-01T06:36:55;4.90;;;2.20;;
76610;SDS011;65503;48.534;9.062;2023-02-01T06:39:22;4.22;;;2.10;;
76610;SDS011;65503;48.534;9.062;2023-02-01T06:41:48;4.85;;;2.10;;
76610;SDS011;65503;48.534;9.062;2023-02-01T06:44:16;4.03;;;2.35;;
76610;SDS011;65503;48.534;9.062;2023-02-01T06:46:42;5.50;;;2.13;;
76610;SDS011;65503;48.534;9.062;2023-02-01T06:49:09;6.93;;;2.72;;
76610;SDS011;65503;48.534;9.062;2023-02-01T06:51:36;4.95;;;2.22;;
76610;SDS011;65503;48.534;9.062;2023-02-01T06:54:02;5.20;;;2.20;;
76610;SDS011;65503;48.534;9.062;2023-02-01T06:56:29;4.55;;;2.15;;
76610;SDS011;65503;48.534;9.062;2023-02-01T06:58:57;6.28;;;2.95;;
76610;SDS011;65503;48.534;9.062;2023-02-01T07:01:23;4.95;;;2.35;;
76610;SDS011;65503;48.534;9.062;2023-02-01T07:03:50;6.43;;;2.65;;
76610;SDS011;65503;48.534;9.062;2023-02-01T07:06:17;4.45;;;2.17;;
76610;SDS011;65503;48.534;9.062;2023-02-01T07:08:44;5.82;;;2.22;;
76610;SDS011;65503;48.534;9.062;2023-02-01T07:11:12;5.45;;;2.30;;
76610;SDS011;65503;48.534;9.062;2023-02-01T07:13:40;5.10;;;2.22;;
76610;SDS011;65503;48.534;9.062;2023-02-01T07:16:08;6.32;;;2.50;;
76610;SDS011;65503;48.534;9.062;2023-02-01T07:18:37;5.30;;;2.47;;
76610;SDS011;65503;48.534;9.062;2023-02-01T07:21:03;4.20;;;1.90;;
76610;SDS011;65503;48.534;9.062;2023-02-01T07:23:30;5.60;;;2.13;;
76610;SDS011;65503;48.534;9.062;2023-02-01T07:25:57;5.60;;;2.15;;
76610;SDS011;65503;48.534;9.062;2023-02-01T07:28:25;5.65;;;2.58;;
76610;SDS011;65503;48.534;9.062;2023-02-01T07:30:54;5.05;;;1.95;;
76610;SDS011;65503;48.534;9.062;2023-02-01T07:33:21;8.02;;;2.40;;
76610;SDS011;65503;48.534;9.062;2023-02-01T07:35:50;5.28;;;2.00;;
76610;SDS011;65503;48.534;9.062;2023-02-01T07:38:17;5.28;;;2.35;;
76610;SDS011;65503;48.534;9.062;2023-02-01T07:40:43;4.75;;;2.00;;
76610;SDS011;65503;48.534;9.062;2023-02-01T07:43:10;4.72;;;1.88;;
76610;SDS011;65503;48.534;9.062;2023-02-01T07:45:36;4.25;;;2.00;;
76610;SDS011;65503;48.534;9.062;2023-02-01T07:48:03;4.55;;;1.77;;
76610;SDS011;65503;48.534;9.062;2023-02-01T07:50:30;8.88;;;2.25;;
76610;SDS011;65503;48.534;9.062;2023-02-01T07:53:00;5.30;;;2.20;;
76610;SDS011;65503;48.534;9.062;2023-02-01T07:55:27;4.30;;;1.88;;
76610;SDS011;65503;48.534;9.062;2023-02-01T07:57:56;6.68;;;2.35;;
76610;SDS011;65503;48.534;9.062;2023-02-01T08:00:25;4.53;;;1.95;;
76610;SDS011;65503;48.534;9.062;2023-02-01T08:03:10;3.13;;;1.70;;
76610;SDS011;65503;48.534;9.062;2023-02-01T08:05:37;5.55;;;2.10;;
76610;SDS011;65503;48.534;9.062;2023-02-01T08:08:03;4.95;;;2.30;;
76610;SDS011;65503;48.534;9.062;2023-02-01T08:10:30;4.20;;;2.10;;
76610;SDS011;65503;48.534;9.062;2023-02-01T08:12:57;4.38;;;2.20;;
76610;SDS011;65503;48.534;9.062;2023-02-01T08:15:26;4.72;;;2.13;;
76610;SDS011;65503;48.534;9.062;2023-02-01T08:17:53;9.60;;;2.90;;
76610;SDS011;65503;48.534;9.062;2023-02-01T08:20:21;6.25;;;2.38;;
76610;SDS011;65503;48.534;9.062;2023-02-01T08:22:54;6.95;;;3.15;;
76610;SDS011;65503;48.534;9.062;2023-02-01T08:25:22;5.70;;;2.42;;
76610;SDS011;65503;48.534;9.062;2023-02-01T08:27:49;4.70;;;2.03;;
76610;SDS011;65503;48.534;9.062;2023-02-01T08:30:16;4.13;;;2.05;;
76610;SDS011;65503;48.534;9.062;2023-02-01T08:32:43;3.55;;;2.10;;
76610;SDS011;65503;48.534;9.062;2023-02-01T08:35:09;5.00;;;2.10;;
76610;SDS011;65503;48.534;9.062;2023-02-01T08:37:35;7.60;;;2.42;;
76610;SDS011;65503;48.534;9.062;2023-02-01T08:40:02;3.92;;;2.00;;
76610;SDS011;65503;48.534;9.062;2023-02-01T08:42:30;4.40;;;2.00;;
76610;SDS011;65503;48.534;9.062;2023-02-01T08:45:15;4.20;;;1.63;;
76610;SDS011;65503;48.534;9.062;2023-02-01T08:47:43;4.88;;;1.55;;
76610;SDS011;65503;48.534;9.062;2023-02-01T08:50:09;5.15;;;2.03;;
76610;SDS011;65503;48.534;9.062;2023-02-01T08:52:36;3.85;;;1.88;;
76610;SDS011;65503;48.534;9.062;2023-02-01T08:55:03;5.38;;;1.67;;
76610;SDS011;65503;48.534;9.062;2023-02-01T08:57:30;5.20;;;1.90;;
76610;SDS011;65503;48.534;9.062;2023-02-01T08:59:57;5.30;;;2.10;;
76610;SDS011;65503;48.534;9.062;2023-02-01T09:02:24;4.88;;;1.77;;
76610;SDS011;65503;48.534;9.062;2023-02-01T09:04:50;7.93;;;2.38;;
76610;SDS011;65503;48.534;9.062;2023-02-01T09:07:17;5.45;;;2.00;;
76610;SDS011;65503;48.534;9.062;2023-02-01T09:09:44;5.78;;;2.40;;
76610;SDS011;65503;48.534;9.062;2023-02-01T09:12:11;6.07;;;2.47;;
76610;SDS011;65503;48.534;9.062;2023-02-01T09:14:38;4.93;;;2.10;;
76610;SDS011;65503;48.534;9.062;2023-02-01T09:17:04;5.63;;;2.00;;
76610;SDS011;65503;48.534;9.062;2023-02-01T09:19:31;7.32;;;1.98;;
76610;SDS011;65503;48.534;9.062;2023-02-01T09:21:58;5.65;;;1.98;;
76610;SDS011;65503;48.534;9.062;2023-02-01T09:24:24;6.35;;;2.13;;
76610;SDS011;65503;48.534;9.062;2023-02-01T09:26:51;4.85;;;1.92;;
76610;SDS011;65503;48.534;9.062;2023-02-01T09:29:18;4.32;;;1.80;;
76610;SDS011;65503;48.534;9.062;2023-02-01T09:31:45;4.57;;;1.70;;
76610;SDS011;65503;48.534;9.062;2023-02-01T09:34:28;6.00;;;2.28;;
76610;SDS011;65503;48.534;9.062;2023-02-01T09:36:54;14.05;;;2.40;;
76610;SDS011;65503;48.534;9.062;2023-02-01T09:39:21;8.13;;;3.08;;
76610;SDS011;65503;48.534;9.062;2023-02-01T09:42:08;9.25;;;2.92;;
76610;SDS011;65503;48.534;9.062;2023-02-01T09:47:30;8.73;;;2.53;;
76610;SDS011;65503;48.534;9.062;2023-02-01T09:50:05;4.65;;;2.03;;
76610;SDS011;65503;48.534;9.062;2023-02-01T09:52:44;7.32;;;2.00;;
76610;SDS011;65503;48.534;9.062;2023-02-01T09:55:39;11.30;;;2.08;;
76610;SDS011;65503;48.534;9.062;2023-02-01T09:58:13;10.10;;;2.67;;
76610;SDS011;65503;48.534;9.062;2023-02-01T10:00:46;5.00;;;2.08;;
76610;SDS011;65503;48.534;9.062;2023-02-01T10:03:17;10.00;;;2.10;;
76610;SDS011;65503;48.534;9.062;2023-02-01T10:14:02;8.27;;;2.00;;
76610;SDS011;65503;48.534;9.062;2023-02-01T10:25:36;5.00;;;1.70;;
76610;SDS011;65503;48.534;9.062;2023-02-01T10:28:16;7.68;;;2.58;;
76610;SDS011;65503;48.534;9.062;2023-02-01T10:30:44;8.90;;;2.08;;
76610;SDS011;65503;48.534;9.062;2023-02-01T10:33:17;6.35;;;2.00;;
76610;SDS011;65503;48.534;9.062;2023-02-01T10:35:45;10.95;;;2.20;;
76610;SDS011;65503;48.534;9.062;2023-02-01T10:38:34;7.00;;;2.10;;
76610;SDS011;65503;48.534;9.062;2023-02-01T10:41:03;9.95;;;2.10;;
76610;SDS011;65503;48.534;9.062;2023-02-01T10:43:38;12.05;;;1.90;;
76610;SDS011;65503;48.534;9.062;2023-02-01T10:46:06;5.00;;;1.83;;
76610;SDS011;65503;48.534;9.062;2023-02-01T10:48:34;11.13;;;2.55;;
76610;SDS011;65503;48.534;9.062;2023-02-01T10:51:12;7.78;;;2.35;;
76610;SDS011;65503;48.534;9.062;2023-02-01T10:56:23;6.90;;;1.92;;
76610;SDS011;65503;48.534;9.062;2023-02-01T10:58:51;9.48;;;2.15;;
76610;SDS011;65503;48.534;9.062;2023-02-01T11:01:31;9.75;;;2.20;;
76610;SDS011;65503;48.534;9.062;2023-02-01T11:04:02;9.38;;;2.47;;
76610;SDS011;65503;48.534;9.062;2023-02-01T11:06:35;7.15;;;2.03;;
76610;SDS011;65503;48.534;9.062;2023-02-01T11:14:18;6.15;;;1.98;;
76610;SDS011;65503;48.534;9.062;2023-02-01T11:16:47;11.18;;;2.80;;
76610;SDS011;65503;48.534;9.062;2023-02-01T11:19:16;10.48;;;3.00;;
76610;SDS011;65503;48.534;9.062;2023-02-01T11:24:25;13.30;;;5.20;;
76610;SDS011;65503;48.534;9.062;2023-02-01T11:26:58;9.60;;;2.92;;
76610;SDS011;65503;48.534;9.062;2023-02-01T11:29:26;11.25;;;2.30;;
76610;SDS011;65503;48.534;9.062;2023-02-01T11:34:32;10.70;;;2.05;;
76610;SDS011;65503;48.534;9.062;2023-02-01T11:39:31;7.30;;;2.00;;
76610;SDS011;65503;48.534;9.062;2023-02-01T11:44:41;7.55;;;2.20;;
76610;SDS011;65503;48.534;9.062;2023-02-01T11:47:28;4.05;;;1.80;;
76610;SDS011;65503;48.534;9.062;2023-02-01T11:50:11;7.47;;;2.03;;
76610;SDS011;65503;48.534;9.062;2023-02-01T11:55:38;11.27;;;2.58;;
76610;SDS011;65503;48.534;9.062;2023-02-01T12:04:34;9.75;;;2.38;;
76610;SDS011;65503;48.534;9.062;2023-02-01T12:06:49;8.90;;;2.08;;
76610;SDS011;65503;48.534;9.062;2023-02-01T12:12:31;8.13;;;2.00;;
76610;SDS011;65503;48.534;9.062;2023-02-01T12:18:08;9.18;;;2.42;;
76610;SDS011;65503;48.534;9.062;2023-02-01T12:34:36;5.53;;;1.88;;
76610;SDS011;65503;48.534;9.062;2023-02-01T12:37:39;6.32;;;2.08;;
76610;SDS011;65503;48.534;9.062;2023-02-01T12:43:20;7.70;;;1.60;;
76610;SDS011;65503;48.534;9.062;2023-02-01T12:49:05;12.45;;;2.15;;
76610;SDS011;65503;48.534;9.062;2023-02-01T12:51:35;6.35;;;1.85;;
76610;SDS011;65503;48.534;9.062;2023-02-01T12:56:37;8.43;;;2.88;;
76610;SDS011;65503;48.534;9.062;2023-02-01T12:59:19;6.95;;;1.70;;
76610;SDS011;65503;48.534;9.062;2023-02-01T13:01:59;8.90;;;2.17;;
76610;SDS011;65503;48.534;9.062;2023-02-01T13:04:34;8.95;;;1.83;;
76610;SDS011;65503;48.534;9.062;2023-02-01T13:07:16;6.38;;;1.83;;
76610;SDS011;65503;48.534;9.062;2023-02-01T13:09:50;9.50;;;1.90;;
76610;SDS011;65503;48.534;9.062;2023-02-01T13:12:29;5.88;;;1.60;;
76610;SDS011;65503;48.534;9.062;2023-02-01T13:15:05;9.18;;;2.22;;
76610;SDS011;65503;48.534;9.062;2023-02-01T13:17:42;11.90;;;2.63;;
76610;SDS011;65503;48.534;9.062;2023-02-01T13:20:27;12.00;;;2.25;;
76610;SDS011;65503;48.534;9.062;2023-02-01T13:23:05;9.73;;;2.10;;
76610;SDS011;65503;48.534;9.062;2023-02-01T13:25:52;7.78;;;1.85;;
76610;SDS011;65503;48.534;9.062;2023-02-01T13:42:14;10.82;;;2.47;;
76610;SDS011;65503;48.534;9.062;2023-02-01T13:44:46;8.02;;;2.10;;
76610;SDS011;65503;48.534;9.062;2023-02-01T13:47:23;8.93;;;2.40;;
76610;SDS011;65503;48.534;9.062;2023-02-01T13:49:54;8.50;;;2.33;;
76610;SDS011;65503;48.534;9.062;2023-02-01T13:52:29;10.57;;;2.38;;
76610;SDS011;65503;48.534;9.062;2023-02-01T13:58:09;9.20;;;2.08;;
76610;SDS011;65503;48.534;9.062;2023-02-01T14:00:41;9.93;;;2.38;;
76610;SDS011;65503;48.534;9.062;2023-02-01T14:03:12;7.72;;;2.17;;
76610;SDS011;65503;48.534;9.062;2023-02-01T14:08:10;9.32;;;2.38;;
76610;SDS011;65503;48.534;9.062;2023-02-01T14:10:45;12.23;;;2.53;;
76610;SDS011;65503;48.534;9.062;2023-02-01T14:13:24;6.72;;;2.25;;
76610;SDS011;65503;48.534;9.062;2023-02-01T14:24:03;8.80;;;2.08;;
76610;SDS011;65503;48.534;9.062;2023-02-01T14:26:49;9.73;;;2.40;;
76610;SDS011;65503;48.534;9.062;2023-02-01T14:32:05;12.90;;;1.92;;
76610;SDS011;65503;48.534;9.062;2023-02-01T14:45:45;9.52;;;2.08;;
76610;SDS011;65503;48.534;9.062;2023-02-01T14:47:45;6.97;;;2.20;;
76610;SDS011;65503;48.534;9.062;2023-02-01T14:50:19;10.48;;;2.30;;
76610;SDS011;65503;48.534;9.062;2023-02-01T14:55:38;13.40;;;2.50;;
76610;SDS011;65503;48.534;9.062;2023-02-01T15:01:04;6.82;;;2.05;;
76610;SDS011;65503;48.534;9.062;2023-02-01T15:03:59;10.63;;;2.15;;
76610;SDS011;65503;48.534;9.062;2023-02-01T15:09:08;7.13;;;2.10;;
76610;SDS011;65503;48.534;9.062;2023-02-01T15:14:22;7.25;;;1.85;;
76610;SDS011;65503;48.534;9.062;2023-02-01T15:16:49;9.57;;;2.38;;
76610;SDS011;65503;48.534;9.062;2023-02-01T15:19:21;10.82;;;2.28;;
76610;SDS011;65503;48.534;9.062;2023-02-01T15:21:51;6.57;;;2.38;;
76610;SDS011;65503;48.534;9.062;2023-02-01T15:24:21;7.13;;;1.85;;
76610;SDS011;65503;48.534;9.062;2023-02-01T15:26:51;7.53;;;1.95;;
76610;SDS011;65503;48.534;9.062;2023-02-01T15:31:47;13.75;;;2.20;;
76610;SDS011;65503;48.534;9.062;2023-02-01T15:34:16;9.07;;;2.42;;
76610;SDS011;65503;48.534;9.062;2023-02-01T15:36:44;10.65;;;2.20;;
76610;SDS011;65503;48.534;9.062;2023-02-01T15:39:27;7.97;;;2.80;;
76610;SDS011;65503;48.534;9.062;2023-02-01T15:42:00;8.90;;;2.30;;
76610;SDS011;65503;48.534;9.062;2023-02-01T15:44:39;15.05;;;2.53;;
76610;SDS011;65503;48.534;9.062;2023-02-01T15:47:24;12.02;;;2.28;;
76610;SDS011;65503;48.534;9.062;2023-02-01T15:49:54;9.23;;;3.47;;
76610;SDS011;65503;48.534;9.062;2023-02-01T15:52:24;12.35;;;2.47;;
76610;SDS011;65503;48.534;9.062;2023-02-01T15:55:18;10.85;;;2.47;;
76610;SDS011;65503;48.534;9.062;2023-02-01T15:58:21;8.75;;;1.98;;
76610;SDS011;65503;48.534;9.062;2023-02-01T16:00:55;12.25;;;2.25;;
76610;SDS011;65503;48.534;9.062;2023-02-01T16:06:00;11.05;;;2.65;;
76610;SDS011;65503;48.534;9.062;2023-02-01T16:08:28;9.05;;;2.58;;
76610;SDS011;65503;48.534;9.062;2023-02-01T16:13:35;9.95;;;2.13;;
76610;SDS011;65503;48.534;9.062;2023-02-01T16:16:02;10.10;;;2.42;;
76610;SDS011;65503;48.534;9.062;2023-02-01T16:18:30;13.65;;;2.88;;
76610;SDS011;65503;48.534;9.062;2023-02-01T16:20:56;7.75;;;2.40;;
76610;SDS011;65503;48.534;9.062;2023-02-01T16:23:23;16.20;;;2.75;;
76610;SDS011;65503;48.534;9.062;2023-02-01T16:25:49;16.52;;;2.95;;
76610;SDS011;65503;48.534;9.062;2023-02-01T16:28:16;9.20;;;2.15;;
76610;SDS011;65503;48.534;9.062;2023-02-01T16:30:42;11.55;;;3.10;;
76610;SDS011;65503;48.534;9.062;2023-02-01T16:33:19;11.32;;;2.55;;
76610;SDS011;65503;48.534;9.062;2023-02-01T16:35:48;8.38;;;2.38;;
76610;SDS011;65503;48.534;9.062;2023-02-01T16:38:19;19.55;;;2.67;;
76610;SDS011;65503;48.534;9.062;2023-02-01T16:40:48;7.55;;;2.33;;
76610;SDS011;65503;48.534;9.062;2023-02-01T16:43:22;12.55;;;2.92;;
76610;SDS011;65503;48.534;9.062;2023-02-01T16:45:50;11.05;;;2.85;;
76610;SDS011;65503;48.534;9.062;2023-02-01T16:48:21;8.70;;;2.60;;
76610;SDS011;65503;48.534;9.062;2023-02-01T16:50:50;15.27;;;2.78;;
76610;SDS011;65503;48.534;9.062;2023-02-01T16:53:23;10.85;;;2.53;;
76610;SDS011;65503;48.534;9.062;2023-02-01T16:55:51;6.45;;;2.10;;
76610;SDS011;65503;48.534;9.062;2023-02-01T16:58:19;8.65;;;2.55;;
76610;SDS011;65503;48.534;9.062;2023-02-01T17:00:47;10.95;;;2.40;;
76610;SDS011;65503;48.534;9.062;2023-02-01T17:03:14;14.20;;;2.70;;
76610;SDS011;65503;48.534;9.062;2023-02-01T17:05:44;9.50;;;2.38;;
76610;SDS011;65503;48.534;9.062;2023-02-01T17:08:13;8.60;;;2.22;;
76610;SDS011;65503;48.534;9.062;2023-02-01T17:10:45;9.68;;;2.33;;
76610;SDS011;65503;48.534;9.062;2023-02-01T17:13:13;13.23;;;2.80;;
76610;SDS011;65503;48.534;9.062;2023-02-01T17:15:45;9.13;;;2.40;;
76610;SDS011;65503;48.534;9.062;2023-02-01T17:18:16;12.50;;;2.60;;
76610;SDS011;65503;48.534;9.062;2023-02-01T17:20:44;11.40;;;2.30;;
76610;SDS011;65503;48.534;9.062;2023-02-01T17:23:14;10.82;;;2.28;;
76610;SDS011;65503;48.534;9.062;2023-02-01T17:28:08;8.98;;;2.53;;
76610;SDS011;65503;48.534;9.062;2023-02-01T17:30:34;12.98;;;2.58;;
76610;SDS011;65503;48.534;9.062;2023-02-01T17:33:02;12.88;;;2.90;;
76610;SDS011;65503;48.534;9.062;2023-02-01T17:35:47;10.60;;;2.33;;
76610;SDS011;65503;48.534;9.062;2023-02-01T17:38:13;12.30;;;2.58;;
76610;SDS011;65503;48.534;9.062;2023-02-01T17:40:40;16.38;;;3.03;;
76610;SDS011;65503;48.534;9.062;2023-02-01T17:43:09;10.13;;;2.50;;
76610;SDS011;65503;48.534;9.062;2023-02-01T17:45:40;11.13;;;2.78;;
76610;SDS011;65503;48.534;9.062;2023-02-01T17:48:15;8.40;;;2.65;;
76610;SDS011;65503;48.534;9.062;2023-02-01T17:50:41;9.95;;;2.63;;
76610;SDS011;65503;48.534;9.062;2023-02-01T17:53:08;12.52;;;3.42;;
76610;SDS011;65503;48.534;9.062;2023-02-01T17:55:37;10.02;;;2.50;;
76610;SDS011;65503;48.534;9.062;2023-02-01T17:58:05;10.20;;;3.10;;
76610;SDS011;65503;48.534;9.062;2023-02-01T18:00:32;9.25;;;2.45;;
76610;SDS011;65503;48.534;9.062;2023-02-01T18:03:02;11.13;;;2.20;;